Time;durP1;ratioP1;P1;durP2;ratioP2;P2;SDS_P1;SDS_P2;PMS_P1;PMS_P2;Temp;Humidity;BMP_temperature;BMP_pressure;BME280_temperature;BME280_humidity;BME280_pressure;Samples;Min_cycle;Max_cycle;Signal;HPM_P1;HPM_P2
2022/05/02 00:00:30;;;;;;;73.93;31.77;;;;;;;7.61;100.00;101776.34;5014315;28;20085;-78
2022/05/02 00:02:56;;;;;;;77.88;31.85;;;;;;;7.70;100.00;101781.31;5011727;28;20045;-77
2022/05/02 00:05:22;;;;;;;73.68;31.10;;;;;;;7.79;100.00;101779.94;4995800;28;20478;-78
2022/05/02 00:07:48;;;;;;;75.65;31.65;;;;;;;7.79;100.00;101783.56;4974048;28;20403;-78
2022/05/02 00:10:14;;;;;;;73.13;32.22;;;;;;;7.62;100.00;101775.38;4967639;28;21052;-77
2022/05/02 00:12:40;;;;;;;80.00;32.15;;;;;;;7.70;100.00;101776.75;4977838;28;20113;-78
2022/05/02 00:15:07;;;;;;;80.00;32.63;;;;;;;7.70;100.00;101771.28;4986637;28;20063;-77
2022/05/02 00:20:27;;;;;;;87.13;30.58;;;;;;;7.66;100.00;101766.09;4973955;28;20038;-77
2022/05/02 00:22:53;;;;;;;86.82;32.03;;;;;;;7.66;100.00;101758.81;4970593;28;20173;-77
2022/05/02 00:25:19;;;;;;;88.10;31.75;;;;;;;7.56;100.00;101768.44;4980113;28;20066;-77
2022/05/02 00:27:45;;;;;;;84.55;33.03;;;;;;;7.59;100.00;101764.63;4964894;28;20113;-77
2022/05/02 00:30:12;;;;;;;76.63;32.08;;;;;;;7.45;100.00;101751.75;5009154;28;20216;-77
2022/05/02 00:32:38;;;;;;;81.07;32.38;;;;;;;7.53;100.00;101753.09;4991580;28;20034;-77
2022/05/02 00:35:04;;;;;;;93.10;33.83;;;;;;;7.49;100.00;101756.06;4991960;28;20390;-77
2022/05/02 00:37:30;;;;;;;77.63;32.53;;;;;;;7.54;100.00;101757.59;4990233;28;20031;-77
2022/05/02 00:39:56;;;;;;;87.20;32.47;;;;;;;7.37;100.00;101757.56;4982955;28;20061;-78
2022/05/02 00:42:21;;;;;;;85.88;33.08;;;;;;;7.40;100.00;101749.25;4980522;28;20097;-78
2022/05/02 00:44:47;;;;;;;91.05;34.00;;;;;;;7.33;100.00;101750.53;5013542;28;20046;-77
2022/05/02 00:47:15;;;;;;;87.03;33.70;;;;;;;7.34;100.00;101755.00;4995882;28;20038;-78
2022/05/02 00:49:42;;;;;;;94.40;34.75;;;;;;;7.33;100.00;101745.97;5015308;28;20085;-78
2022/05/02 00:52:07;;;;;;;92.93;34.67;;;;;;;7.23;100.00;101741.94;4982208;28;20497;-78
2022/05/02 00:54:35;;;;;;;86.18;33.78;;;;;;;7.20;100.00;101742.09;4991749;28;20038;-78
2022/05/02 00:57:02;;;;;;;88.70;34.42;;;;;;;7.15;100.00;101742.34;4996479;28;20022;-78
2022/05/02 00:59:28;;;;;;;89.63;33.67;;;;;;;7.16;100.00;101741.34;5012491;28;20034;-78
2022/05/02 01:01:53;;;;;;;92.50;34.95;;;;;;;7.24;100.00;101742.81;4987848;28;20035;-78
2022/05/02 01:04:19;;;;;;;108.75;36.08;;;;;;;7.28;100.00;101750.78;4976471;28;20045;-78
2022/05/02 01:09:32;;;;;;;92.00;34.63;;;;;;;7.13;100.00;101743.34;4996254;28;20185;-79
2022/05/02 01:11:58;;;;;;;107.50;35.67;;;;;;;7.12;100.00;101739.75;4979337;28;20039;-78
2022/05/02 01:14:23;;;;;;;100.63;34.67;;;;;;;7.03;100.00;101734.75;4979271;28;20049;-78
2022/05/02 01:16:49;;;;;;;99.30;37.75;;;;;;;6.98;100.00;101736.84;4963716;28;20031;-78
2022/05/02 01:19:15;;;;;;;92.90;34.88;;;;;;;7.02;100.00;101741.19;4996777;28;20054;-78
2022/05/02 01:21:43;;;;;;;99.22;36.63;;;;;;;6.96;100.00;101726.03;4990752;28;20643;-78
2022/05/02 01:24:09;;;;;;;106.35;37.03;;;;;;;6.96;100.00;101744.22;4991981;28;20061;-78
2022/05/02 01:26:34;;;;;;;106.00;36.40;;;;;;;6.93;100.00;101733.47;4977259;28;20030;-78
2022/05/02 01:29:01;;;;;;;104.70;38.10;;;;;;;6.91;100.00;101735.41;4993076;28;20042;-79
2022/05/02 01:31:27;;;;;;;106.22;35.42;;;;;;;6.99;100.00;101735.91;4991799;28;20052;-79
2022/05/02 01:33:53;;;;;;;113.25;39.05;;;;;;;7.05;100.00;101734.69;4994220;28;20026;-78
2022/05/02 01:36:21;;;;;;;106.20;38.30;;;;;;;6.99;100.00;101733.16;4992969;28;20120;-77
2022/05/02 01:38:47;;;;;;;104.68;37.40;;;;;;;6.95;100.00;101731.53;4996311;28;20034;-77
2022/05/02 01:41:13;;;;;;;106.00;37.92;;;;;;;7.06;100.00;101731.03;4995649;28;20041;-78
2022/05/02 01:43:40;;;;;;;118.82;36.88;;;;;;;6.93;100.00;101731.63;4980882;28;20046;-78
2022/05/02 01:46:08;;;;;;;108.57;39.58;;;;;;;6.95;100.00;101724.28;5007824;28;20107;-77
2022/05/02 01:48:33;;;;;;;109.28;38.88;;;;;;;6.76;100.00;101727.03;5006196;28;20038;-77
2022/05/02 01:50:59;;;;;;;120.15;39.05;;;;;;;6.80;100.00;101733.19;5011897;28;20501;-78
2022/05/02 01:53:26;;;;;;;115.00;39.60;;;;;;;6.75;100.00;101722.53;4994032;28;20041;-78
2022/05/02 01:55:52;;;;;;;106.55;40.33;;;;;;;6.74;100.00;101728.03;4996644;28;20105;-78
2022/05/02 01:58:18;;;;;;;119.88;40.22;;;;;;;6.71;100.00;101720.94;4976703;28;20038;-78
2022/05/02 02:00:44;;;;;;;113.72;40.03;;;;;;;6.80;100.00;101715.03;4983672;28;20053;-79
2022/05/02 02:03:10;;;;;;;109.65;38.67;;;;;;;6.78;100.00;101730.53;4974859;28;20041;-78
2022/05/02 02:05:51;;;;;;;126.03;41.25;;;;;;;6.71;100.00;101726.38;4998617;28;20125;-79
2022/05/02 02:08:25;;;;;;;106.03;38.70;;;;;;;6.64;100.00;101724.91;4994843;28;20575;-79
2022/05/02 02:10:53;;;;;;;121.30;40.95;;;;;;;6.65;100.00;101728.50;4996735;28;20497;-78
2022/05/02 02:13:19;;;;;;;117.10;41.25;;;;;;;6.55;100.00;101722.63;4992375;28;20039;-79
2022/05/02 02:15:46;;;;;;;123.78;41.85;;;;;;;6.56;100.00;101724.38;4976083;28;20030;-78
2022/05/02 02:18:12;;;;;;;133.38;41.60;;;;;;;6.64;100.00;101722.19;4997495;28;20391;-79
2022/05/02 02:20:42;;;;;;;133.50;39.78;;;;;;;6.63;100.00;101718.56;4972735;28;20030;-78
2022/05/02 02:23:08;;;;;;;133.45;41.65;;;;;;;6.55;100.00;101714.47;4996198;28;20105;-78
2022/05/02 02:25:34;;;;;;;124.80;41.35;;;;;;;6.54;100.00;101716.31;4993497;28;20038;-78
2022/05/02 02:28:00;;;;;;;121.57;40.30;;;;;;;6.48;100.00;101718.41;5011069;28;20034;-78
2022/05/02 02:30:28;;;;;;;120.00;40.03;;;;;;;6.42;100.00;101720.47;5000344;28;20033;-79
2022/05/02 02:32:53;;;;;;;126.68;41.63;;;;;;;6.47;100.00;101725.72;4996738;28;20034;-79
2022/05/02 02:35:20;;;;;;;121.63;39.50;;;;;;;6.31;100.00;101711.94;4998101;28;20133;-78
2022/05/02 02:37:47;;;;;;;115.53;41.08;;;;;;;6.29;100.00;101713.00;4979320;28;20159;-78
2022/05/02 02:40:13;;;;;;;127.88;39.35;;;;;;;6.46;100.00;101718.53;4991837;28;20039;-78
2022/05/02 02:42:39;;;;;;;123.30;41.22;;;;;;;6.44;100.00;101718.59;5001831;28;20096;-79
2022/05/02 02:45:05;;;;;;;124.63;39.90;;;;;;;6.33;100.00;101704.63;5002515;28;20042;-79
2022/05/02 02:47:30;;;;;;;127.25;40.88;;;;;;;6.29;100.00;101711.16;5000820;28;20094;-80
2022/05/02 02:49:56;;;;;;;130.55;40.15;;;;;;;6.32;100.00;101702.84;4995564;28;20462;-77
2022/05/02 02:52:21;;;;;;;122.95;44.47;;;;;;;6.34;100.00;101700.94;4972177;28;20192;-79
2022/05/02 02:54:47;;;;;;;122.60;40.03;;;;;;;6.38;100.00;101707.13;4989524;28;20113;-80
2022/05/02 02:57:12;;;;;;;123.30;41.95;;;;;;;6.27;100.00;101704.03;4999756;28;20113;-80
2022/05/02 02:59:39;;;;;;;136.50;43.53;;;;;;;6.17;100.00;101704.47;4999477;28;20026;-79
2022/05/02 03:02:06;;;;;;;146.98;43.08;;;;;;;6.30;100.00;101698.44;5000704;28;20042;-80
2022/05/02 03:07:19;;;;;;;134.10;40.80;;;;;;;6.11;100.00;101695.72;5000079;28;20100;-77
2022/05/02 03:09:45;;;;;;;139.75;43.45;;;;;;;6.05;100.00;101696.84;4974451;28;20074;-78
2022/05/02 03:12:12;;;;;;;132.35;43.60;;;;;;;6.14;100.00;101695.56;5001649;28;20046;-78
2022/05/02 03:14:37;;;;;;;127.97;43.80;;;;;;;6.07;100.00;101694.97;4982933;28;20145;-80
2022/05/02 03:17:03;;;;;;;125.85;42.08;;;;;;;5.99;100.00;101689.88;4993607;28;20058;-78
2022/05/02 03:19:29;;;;;;;124.57;41.72;;;;;;;5.96;100.00;101681.88;4982075;28;20038;-78
2022/05/02 03:21:54;;;;;;;135.18;43.08;;;;;;;5.96;100.00;101683.69;5000537;28;20482;-79
2022/05/02 03:24:21;;;;;;;119.75;41.28;;;;;;;5.97;100.00;101690.91;4963935;28;20038;-79
2022/05/02 03:26:47;;;;;;;124.35;42.08;;;;;;;6.09;100.00;101687.63;5011410;28;20088;-79
2022/05/02 03:29:12;;;;;;;131.30;40.72;;;;;;;5.92;100.00;101682.03;4994321;28;20114;-79
2022/05/02 03:31:39;;;;;;;123.78;43.30;;;;;;;6.07;100.00;101682.25;4980060;28;20045;-79
2022/05/02 03:34:04;;;;;;;110.60;38.13;;;;;;;6.10;100.00;101680.34;4992766;28;20046;-78
2022/05/02 03:36:30;;;;;;;138.15;41.67;;;;;;;6.07;100.00;101676.81;4982431;28;20120;-78
2022/05/02 03:38:55;;;;;;;128.45;42.28;;;;;;;5.99;100.00;101679.00;4980671;28;20546;-79
2022/05/02 03:41:21;;;;;;;134.05;40.58;;;;;;;6.07;100.00;101678.66;4995599;28;20046;-78
2022/05/02 03:43:46;;;;;;;130.95;39.55;;;;;;;6.08;100.00;101674.97;4984299;28;20034;-78
2022/05/02 03:46:12;;;;;;;119.88;40.28;;;;;;;5.93;100.00;101684.69;4969952;28;20038;-78
2022/05/02 03:48:37;;;;;;;120.80;39.58;;;;;;;5.73;100.00;101682.03;4999930;28;20034;-78
2022/05/02 03:51:03;;;;;;;118.30;39.63;;;;;;;5.70;100.00;101680.31;4995876;28;20410;-79
2022/05/02 03:53:30;;;;;;;112.57;39.70;;;;;;;5.71;100.00;101677.53;4981582;28;20171;-79
2022/05/02 03:55:55;;;;;;;116.13;39.60;;;;;;;5.70;100.00;101677.59;4981828;28;20441;-81
2022/05/02 03:58:21;;;;;;;108.00;39.50;;;;;;;5.80;100.00;101670.78;4992864;28;20058;-78
2022/05/02 04:00:47;;;;;;;115.38;40.03;;;;;;;5.76;100.00;101671.03;4996606;28;20034;-79
2022/05/02 04:03:13;;;;;;;114.28;39.45;;;;;;;5.74;100.00;101684.69;5016035;28;20030;-79
2022/05/02 04:05:38;;;;;;;106.20;36.38;;;;;;;5.75;100.00;101683.72;4982551;28;20038;-79
2022/05/02 04:08:04;;;;;;;102.00;36.35;;;;;;;5.78;100.00;101675.41;5001846;28;20097;-79
2022/05/02 04:10:30;;;;;;;89.97;36.72;;;;;;;5.77;100.00;101681.81;4981772;28;20057;-79
2022/05/02 04:12:55;;;;;;;91.00;34.55;;;;;;;5.71;100.00;101679.38;4962977;28;20030;-79
2022/05/02 04:15:23;;;;;;;105.88;33.80;;;;;;;5.75;100.00;101675.56;5000809;28;20096;-79
2022/05/02 04:17:51;;;;;;;104.43;34.00;;;;;;;5.73;100.00;101663.00;4993042;28;20031;-78
2022/05/02 04:20:17;;;;;;;88.30;33.47;;;;;;;5.80;100.00;101668.06;4984175;28;20071;-79
2022/05/02 04:22:43;;;;;;;90.90;32.80;;;;;;;5.74;100.00;101673.81;4992233;28;20030;-81
2022/05/02 04:25:09;;;;;;;82.70;31.52;;;;;;;5.76;100.00;101671.03;5001163;28;20046;-78
2022/05/02 04:27:37;;;;;;;78.03;31.98;;;;;;;5.85;100.00;101678.72;4999786;28;20497;-78
2022/05/02 04:30:06;;;;;;;98.55;33.00;;;;;;;5.85;100.00;101682.34;4984154;28;20043;-78
2022/05/02 04:32:33;;;;;;;77.28;30.77;;;;;;;5.88;100.00;101667.72;5002679;28;20034;-80
2022/05/02 04:35:02;;;;;;;85.25;32.47;;;;;;;5.96;100.00;101675.53;4989774;28;20432;-78
2022/05/02 04:37:28;;;;;;;76.40;30.58;;;;;;;5.98;100.00;101682.69;5015712;28;20516;-78
2022/05/02 04:39:55;;;;;;;67.03;30.00;;;;;;;6.06;100.00;101676.88;4994381;28;20335;-80
2022/05/02 04:42:21;;;;;;;68.97;28.90;;;;;;;6.05;100.00;101677.84;4958303;28;20053;-78
2022/05/02 04:44:47;;;;;;;61.47;29.60;;;;;;;6.07;100.00;101675.94;4982376;28;20046;-80
2022/05/02 04:47:12;;;;;;;60.13;27.67;;;;;;;6.07;100.00;101675.94;4999036;28;20039;-78
2022/05/02 04:49:38;;;;;;;62.05;27.27;;;;;;;6.03;100.00;101672.50;4992376;28;20041;-78
2022/05/02 04:52:04;;;;;;;60.13;27.10;;;;;;;6.07;100.00;101673.22;4973453;28;20121;-78
2022/05/02 04:54:35;;;;;;;59.05;26.30;;;;;;;6.22;100.00;101680.66;4962298;28;20030;-78
2022/05/02 04:57:03;;;;;;;66.40;26.92;;;;;;;6.19;100.00;101675.34;4993766;28;20082;-78
2022/05/02 04:59:30;;;;;;;55.53;26.15;;;;;;;6.17;100.00;101684.56;4991254;28;20030;-78
2022/05/02 05:01:58;;;;;;;53.80;26.38;;;;;;;6.16;100.00;101690.94;4977528;28;20090;-78
2022/05/02 05:04:24;;;;;;;49.47;25.35;;;;;;;6.16;100.00;101689.09;4993693;28;20034;-78
2022/05/02 05:06:53;;;;;;;51.83;25.48;;;;;;;6.13;100.00;101685.63;4994374;28;20019;-79
2022/05/02 05:09:20;;;;;;;48.50;25.00;;;;;;;6.17;100.00;101688.16;4992370;28;20120;-79
2022/05/02 05:12:23;;;;;;;53.97;26.05;;;;;;;6.24;100.00;101688.72;4999086;28;20030;-79
2022/05/02 05:18:34;;;;;;;48.58;24.23;;;;;;;6.43;100.00;101689.63;5002528;28;20030;-78
2022/05/02 05:21:32;;;;;;;46.08;23.15;;;;;;;6.55;100.00;101695.41;5009370;28;20374;-79
2022/05/02 05:24:17;;;;;;;52.42;24.75;;;;;;;6.66;100.00;101690.34;5004727;28;20034;-80
2022/05/02 05:27:08;;;;;;;41.78;23.08;;;;;;;6.70;100.00;101689.22;4977104;28;20099;-79
2022/05/02 05:29:48;;;;;;;39.55;23.67;;;;;;;6.83;100.00;101691.34;4982100;28;20031;-80
2022/05/02 05:32:39;;;;;;;41.45;21.10;;;;;;;7.16;100.00;101692.31;5000610;28;20036;-78
2022/05/02 05:35:06;;;;;;;34.75;21.25;;;;;;;7.28;100.00;101684.50;4967652;28;20125;-78
2022/05/02 05:38:01;;;;;;;39.22;22.10;;;;;;;7.34;100.00;101686.91;4964298;28;20541;-78
2022/05/02 05:40:38;;;;;;;42.05;23.05;;;;;;;7.54;100.00;101691.28;5001084;28;20034;-78
2022/05/02 05:43:28;;;;;;;45.50;23.15;;;;;;;7.57;100.00;101691.13;4985455;28;20060;-79
2022/05/02 05:46:16;;;;;;;38.58;22.65;;;;;;;7.68;100.00;101693.31;4983629;28;20098;-80
2022/05/02 05:49:08;;;;;;;41.40;23.27;;;;;;;7.93;100.00;101695.56;4997764;28;20026;-79
2022/05/02 05:51:48;;;;;;;35.67;22.38;;;;;;;8.30;100.00;101693.56;4978260;28;20554;-78
2022/05/02 05:54:41;;;;;;;39.40;22.67;;;;;;;8.51;100.00;101705.13;4991945;28;20379;-79
2022/05/02 05:57:26;;;;;;;32.97;20.52;;;;;;;8.92;100.00;101703.69;4984024;28;20088;-78
2022/05/02 06:00:11;;;;;;;30.38;18.75;;;;;;;9.11;100.00;101703.50;4980081;28;20035;-79
2022/05/02 06:02:50;;;;;;;31.42;19.08;;;;;;;9.21;100.00;101704.72;4993359;28;20034;-79
2022/05/02 06:05:19;;;;;;;36.30;19.60;;;;;;;9.35;100.00;101699.31;4988468;28;20078;-78
2022/05/02 06:07:47;;;;;;;32.38;17.92;;;;;;;9.78;100.00;101705.84;4962378;28;20051;-79
2022/05/02 06:10:17;;;;;;;32.72;18.70;;;;;;;9.74;100.00;101708.78;4997315;28;20151;-79
2022/05/02 06:12:45;;;;;;;28.02;18.02;;;;;;;9.86;100.00;101692.56;4992591;28;20410;-78
2022/05/02 06:20:45;;;;;;;28.33;17.75;;;;;;;10.57;100.00;101707.25;4998945;28;20085;-78
2022/05/02 06:23:13;;;;;;;26.05;16.65;;;;;;;10.71;100.00;101701.75;5013067;28;20035;-78
2022/05/02 06:25:40;;;;;;;34.25;16.92;;;;;;;10.88;100.00;101702.47;4995917;28;20073;-78
2022/05/02 06:28:07;;;;;;;25.85;16.77;;;;;;;11.02;100.00;101700.56;4989134;28;20098;-79
2022/05/02 06:30:35;;;;;;;26.27;16.52;;;;;;;11.62;100.00;101709.28;4974493;28;20038;-79
2022/05/02 06:33:09;;;;;;;26.13;15.73;;;;;;;11.59;100.00;101706.75;4978838;28;20367;-79
2022/05/02 06:36:03;;;;;;;27.35;16.35;;;;;;;11.67;100.00;101712.56;5011695;28;20037;-80
2022/05/02 06:38:49;;;;;;;27.90;15.40;;;;;;;12.13;97.58;101703.88;4971121;28;20081;-81
2022/05/02 06:41:32;;;;;;;26.55;15.35;;;;;;;12.32;99.87;101708.88;4990724;28;20074;-80
2022/05/02 06:44:34;;;;;;;24.17;14.80;;;;;;;12.77;97.16;101713.81;4996643;28;20409;-79
2022/05/02 06:47:11;;;;;;;19.90;13.18;;;;;;;13.50;89.21;101706.50;5004248;28;20885;-78
2022/05/02 06:49:42;;;;;;;23.73;13.00;;;;;;;13.04;93.24;101708.13;4999486;28;20027;-79
2022/05/02 06:52:11;;;;;;;25.30;13.13;;;;;;;13.90;87.07;101711.59;4979000;28;20041;-79
2022/05/02 06:55:25;;;;;;;20.25;12.93;;;;;;;13.75;87.76;101708.19;4996795;28;20039;-80
2022/05/02 06:58:26;;;;;;;20.45;12.25;;;;;;;13.89;85.37;101709.00;4971521;28;20034;-79
2022/05/02 07:01:18;;;;;;;17.80;11.13;;;;;;;15.13;78.03;101703.41;4948289;29;20027;-79
2022/05/02 07:04:24;;;;;;;20.30;12.10;;;;;;;14.53;79.60;101701.00;4978193;28;20050;-78
2022/05/02 07:07:10;;;;;;;20.95;12.18;;;;;;;14.40;79.35;101703.03;4927011;28;20129;-80
2022/05/02 07:09:51;;;;;;;21.23;11.93;;;;;;;15.16;78.38;101705.06;4991992;28;20046;-80
2022/05/02 07:12:34;;;;;;;21.83;11.45;;;;;;;14.57;80.00;101698.00;4958162;28;20059;-80
2022/05/02 07:15:11;;;;;;;20.35;11.73;;;;;;;14.86;79.38;101701.13;4957824;28;20046;-80
2022/05/02 07:17:47;;;;;;;21.02;11.77;;;;;;;14.72;79.76;101709.66;5007983;28;20034;-80
2022/05/02 07:20:22;;;;;;;18.52;11.32;;;;;;;15.62;74.46;101703.84;4972141;28;20057;-80
2022/05/02 07:23:17;;;;;;;28.30;11.40;;;;;;;15.33;75.38;101700.84;4983976;28;20470;-81
2022/05/02 07:26:02;;;;;;;26.75;11.88;;;;;;;14.94;76.74;101693.09;4997507;28;20045;-79
2022/05/02 07:28:49;;;;;;;16.55;11.25;;;;;;;14.93;78.06;101691.31;4989599;28;20558;-80
2022/05/02 07:31:23;;;;;;;18.30;11.15;;;;;;;16.17;70.81;101696.25;4999534;28;20454;-79
2022/05/02 07:33:51;;;;;;;23.38;11.25;;;;;;;16.09;70.00;101701.59;4983893;28;20030;-78
2022/05/02 07:36:20;;;;;;;18.33;10.32;;;;;;;16.19;69.77;101701.63;4998543;28;20062;-80
2022/05/02 07:38:58;;;;;;;16.13;10.38;;;;;;;16.38;69.73;101699.97;5013592;28;20034;-81
2022/05/02 07:41:25;;;;;;;16.08;10.98;;;;;;;15.93;70.19;101699.31;4998776;28;20084;-82
2022/05/02 07:43:59;;;;;;;21.10;11.10;;;;;;;15.76;70.55;101703.56;4998554;28;20062;-81
2022/05/02 07:46:45;;;;;;;23.05;10.50;;;;;;;15.76;70.14;101705.47;4985853;28;20037;-82
2022/05/02 07:49:25;;;;;;;17.73;10.20;;;;;;;16.48;68.45;101696.25;4994590;28;20039;-81
2022/05/02 07:51:52;;;;;;;17.95;10.73;;;;;;;16.27;69.58;101695.44;5021739;28;20398;-83
2022/05/02 07:54:24;;;;;;;16.15;9.98;;;;;;;16.50;68.50;101698.88;4999516;28;20482;-81
2022/05/02 07:56:51;;;;;;;;;;;;;;;16.62;69.21;101696.88;4977627;28;20050;-81
2022/05/02 07:59:19;;;;;;;14.50;9.05;;;;;;;16.49;66.04;101699.88;4983801;28;19922;-81
2022/05/02 08:01:44;;;;;;;19.45;9.23;;;;;;;16.98;67.10;101694.53;4996173;28;20109;-80
2022/05/02 08:04:15;;;;;;;25.05;8.82;;;;;;;17.48;65.55;101691.66;4994423;28;20102;-81
2022/05/02 08:07:01;;;;;;;14.63;7.47;;;;;;;16.90;63.64;101692.47;4989707;28;20037;-80
2022/05/02 08:09:45;;;;;;;15.32;8.90;;;;;;;16.96;63.38;101693.81;4993920;28;20105;-79
2022/05/02 08:12:27;;;;;;;11.40;8.32;;;;;;;16.32;64.37;101690.34;4970803;28;20394;-79
2022/05/02 08:15:08;;;;;;;14.10;8.88;;;;;;;17.13;63.55;101692.22;4997287;28;20465;-79
2022/05/02 08:18:09;;;;;;;12.02;8.48;;;;;;;17.66;62.79;101674.28;4983556;28;20037;-79
2022/05/02 08:20:51;;;;;;;10.70;7.15;;;;;;;17.51;60.55;101674.75;5001680;28;20054;-82
2022/05/02 08:27:15;;;;;;;12.15;6.78;;;;;;;18.14;57.49;101679.75;4997043;28;20158;-80
2022/05/02 08:30:11;;;;;;;14.88;7.00;;;;;;;17.69;58.47;101677.63;5014048;28;20398;-80
2022/05/02 08:32:59;;;;;;;16.17;6.57;;;;;;;18.76;56.87;101672.75;4980352;28;20058;-80
2022/05/02 08:35:53;;;;;;;13.80;7.38;;;;;;;18.91;58.73;101674.88;4996081;28;20035;-81
2022/05/02 08:39:07;;;;;;;15.38;7.78;;;;;;;18.35;54.91;101673.13;4997044;28;20079;-80
2022/05/02 08:42:05;;;;;;;10.68;6.90;;;;;;;17.95;58.20;101671.50;4989594;28;20069;-81
2022/05/02 08:45:02;;;;;;;12.00;7.40;;;;;;;18.30;53.78;101668.03;4999664;28;20549;-81
2022/05/02 08:48:04;;;;;;;9.00;6.35;;;;;;;19.16;55.66;101680.69;4985112;28;20398;-81
2022/05/02 08:51:07;;;;;;;14.95;8.40;;;;;;;18.78;52.88;101670.72;5000445;28;20030;-80
2022/05/02 08:54:37;;;;;;;16.67;8.98;;;;;;;19.32;51.88;101668.03;5009211;28;20034;-81
2022/05/02 08:57:18;;;;;;;12.65;7.93;;;;;;;18.90;55.20;101670.34;4953209;28;20038;-79
2022/05/02 09:00:03;;;;;;;16.33;9.63;;;;;;;18.71;51.84;101676.00;4992888;28;20386;-80
2022/05/02 09:03:00;;;;;;;19.35;9.07;;;;;;;18.57;53.87;101668.19;4997077;28;20041;-80
2022/05/02 09:06:19;;;;;;;16.30;10.15;;;;;;;18.02;53.86;101671.75;4981942;28;20458;-81
2022/05/02 09:08:56;;;;;;;33.88;15.02;;;;;;;18.45;50.91;101664.75;4940899;29;20043;-80
2022/05/02 09:11:56;;;;;;;23.05;13.60;;;;;;;18.66;53.12;101664.47;4934830;29;20039;-80
2022/05/02 09:14:37;;;;;;;38.67;12.95;;;;;;;19.63;51.21;101661.00;4950345;29;20073;-80
2022/05/02 09:17:15;;;;;;;23.83;12.82;;;;;;;18.81;50.98;101671.28;4972528;28;20055;-81
2022/05/02 09:20:09;;;;;;;24.65;12.80;;;;;;;18.42;52.69;101665.06;4955571;29;20041;-80
2022/05/02 09:22:51;;;;;;;24.15;13.52;;;;;;;19.05;50.16;101661.50;4939994;29;20043;-80
2022/05/02 09:25:42;;;;;;;30.40;15.35;;;;;;;18.73;52.50;101660.94;4971865;28;20047;-80
2022/05/02 09:28:21;;;;;;;23.60;14.40;;;;;;;19.81;49.87;101658.22;4949567;29;20035;-78
2022/05/02 09:31:03;;;;;;;30.08;13.85;;;;;;;19.33;52.90;101653.94;4973674;28;20053;-78
2022/05/02 09:33:41;;;;;;;22.23;12.50;;;;;;;19.45;50.57;101649.03;4958441;28;20027;-80
2022/05/02 09:36:29;;;;;;;20.88;12.43;;;;;;;18.84;53.76;101647.91;4948615;29;20039;-80
2022/05/02 09:39:13;;;;;;;33.47;13.65;;;;;;;19.29;51.01;101658.09;4947603;28;20451;-80
2022/05/02 09:41:57;;;;;;;34.72;13.25;;;;;;;19.82;51.65;101659.97;4955995;29;20475;-79
2022/05/02 09:51:32;;;;;;;22.27;13.88;;;;;;;19.88;48.78;101641.75;4955595;28;20440;-80
2022/05/02 09:54:06;;;;;;;;;;;;;;;20.29;47.61;101643.91;4963499;28;20035;-81
2022/05/02 09:56:43;;;;;;;;;;;;;;;20.57;46.28;101641.78;4968713;28;20317;-80
2022/05/02 09:59:29;;;;;;;27.40;12.63;;;;;;;19.94;49.09;101634.66;4952736;29;19921;-81
2022/05/02 10:02:07;;;;;;;20.30;12.88;;;;;;;19.67;48.80;101632.91;4958294;28;20046;-81
2022/05/02 10:04:45;;;;;;;20.80;13.27;;;;;;;18.50;51.04;101635.53;4951203;29;20035;-81
2022/05/02 10:07:18;;;;;;;20.35;13.13;;;;;;;19.64;48.38;101632.19;4945703;29;20243;-82
2022/05/02 10:10:17;;;;;;;23.50;13.93;;;;;;;20.72;45.05;101639.25;4988402;28;20043;-81
2022/05/02 10:12:51;;;;;;;21.38;12.90;;;;;;;19.55;48.38;101629.50;4995707;28;20033;-81
2022/05/02 10:15:32;;;;;;;25.67;13.30;;;;;;;20.74;45.24;101632.47;4986424;28;20023;-80
2022/05/02 10:18:42;;;;;;;20.42;13.05;;;;;;;19.46;50.36;101628.53;4992872;28;20035;-81
2022/05/02 10:21:33;;;;;;;22.00;13.07;;;;;;;19.23;50.17;101625.41;4989623;28;20034;-80
2022/05/02 10:24:01;;;;;;;22.00;12.57;;;;;;;19.79;49.73;101624.16;4991772;28;20041;-81
2022/05/02 10:26:40;;;;;;;23.40;13.45;;;;;;;19.66;49.50;101626.47;4994152;28;20033;-80
2022/05/02 10:29:30;;;;;;;23.17;12.70;;;;;;;19.73;51.26;101630.34;5010631;28;20489;-80
2022/05/02 10:32:03;;;;;;;21.02;13.35;;;;;;;19.79;48.89;101628.81;5003430;28;20026;-81
2022/05/02 10:34:33;;;;;;;21.58;12.98;;;;;;;19.71;49.95;101612.06;4976316;28;20037;-81
2022/05/02 10:37:02;;;;;;;25.35;14.23;;;;;;;19.40;51.11;101616.19;4989660;28;20031;-81
2022/05/02 10:39:47;;;;;;;22.02;14.13;;;;;;;20.13;49.10;101617.75;4990873;28;20026;-81
2022/05/02 10:42:17;;;;;;;27.23;14.85;;;;;;;19.71;49.59;101612.06;4977760;28;20356;-81
2022/05/02 10:45:01;;;;;;;28.08;15.10;;;;;;;20.62;46.57;101622.66;4982219;28;20045;-81
2022/05/02 10:47:38;;;;;;;24.60;12.52;;;;;;;19.88;49.30;101611.19;5003847;28;20062;-80
2022/05/02 10:50:16;;;;;;;23.17;13.45;;;;;;;19.91;50.68;101601.66;5000770;28;20110;-80
2022/05/02 10:53:14;;;;;;;23.52;13.10;;;;;;;19.97;50.87;101601.88;4988514;28;20026;-82
2022/05/02 10:56:01;;;;;;;21.83;13.73;;;;;;;19.87;48.29;101600.22;4984964;28;20141;-82
2022/05/02 10:58:34;;;;;;;22.38;13.20;;;;;;;20.10;48.84;101598.63;4988992;28;20043;-80
2022/05/02 11:01:06;;;;;;;22.85;14.60;;;;;;;20.85;46.93;101597.00;4992180;28;20474;-79
2022/05/02 11:03:35;;;;;;;23.98;14.55;;;;;;;20.64;46.99;101592.75;4991482;28;20301;-79
2022/05/02 11:06:03;;;;;;;27.80;17.23;;;;;;;20.18;46.47;101589.44;4983248;28;20414;-80
2022/05/02 11:08:47;;;;;;;29.45;16.17;;;;;;;19.86;49.29;101581.78;4979337;28;20026;-80
2022/05/02 11:11:27;;;;;;;28.83;15.45;;;;;;;21.06;45.18;101588.16;4996885;28;20514;-81
2022/05/02 11:14:17;;;;;;;30.23;15.23;;;;;;;20.11;48.41;101586.47;4991559;28;20026;-81
2022/05/02 11:16:59;;;;;;;33.47;14.65;;;;;;;20.07;50.36;101576.72;5000471;28;20030;-80
2022/05/02 11:23:05;;;;;;;33.97;14.65;;;;;;;19.51;48.74;101573.38;4998125;28;20046;-81
2022/05/02 11:25:37;;;;;;;29.92;15.40;;;;;;;19.03;50.48;101563.63;4977945;28;20104;-81
2022/05/02 11:28:30;;;;;;;30.13;17.65;;;;;;;18.62;52.02;101572.38;5015106;28;20034;-81
2022/05/02 11:31:21;;;;;;;33.03;15.98;;;;;;;19.02;52.69;101550.78;4998266;28;20378;-81
2022/05/02 11:34:25;;;;;;;28.17;16.25;;;;;;;19.61;50.72;101563.06;4995916;28;20535;-81
2022/05/02 11:36:57;;;;;;;27.33;15.75;;;;;;;19.84;50.20;101556.97;4997545;28;20035;-81
2022/05/02 11:39:45;;;;;;;30.88;16.08;;;;;;;19.89;50.40;101562.91;5015175;28;20474;-80
2022/05/02 11:42:18;;;;;;;29.20;15.35;;;;;;;19.39;49.92;101561.66;4991697;28;20494;-80
2022/05/02 11:44:49;;;;;;;27.90;16.60;;;;;;;19.28;52.70;101565.59;4968527;28;20057;-81
2022/05/02 11:47:27;;;;;;;27.17;16.63;;;;;;;18.93;51.07;101563.72;4999657;28;20402;-81
2022/05/02 11:50:09;;;;;;;30.58;15.98;;;;;;;18.92;49.99;101556.41;4994963;28;20094;-81
2022/05/02 11:52:37;;;;;;;32.65;17.48;;;;;;;19.01;49.66;101558.25;5003066;28;20034;-81
2022/05/02 11:55:08;;;;;;;31.30;16.48;;;;;;;19.31;50.24;101557.97;5002081;28;20041;-81
2022/05/02 11:57:41;;;;;;;34.53;16.23;;;;;;;19.43;49.38;101551.09;5004062;28;20543;-80
2022/05/02 12:00:12;;;;;;;40.53;18.13;;;;;;;19.19;49.03;101554.59;4992928;28;20030;-80
2022/05/02 12:02:46;;;;;;;37.00;16.52;;;;;;;19.73;51.55;101554.44;4979777;28;20035;-81
2022/05/02 12:05:17;;;;;;;34.25;17.38;;;;;;;20.29;50.88;101549.34;5004567;28;20038;-80
2022/05/02 12:08:02;;;;;;;38.33;19.25;;;;;;;19.82;48.21;101545.13;4986117;28;20042;-80
2022/05/02 12:10:47;;;;;;;33.13;18.83;;;;;;;19.28;48.78;101539.72;4997916;28;20049;-80
2022/05/02 12:13:16;;;;;;;38.50;16.92;;;;;;;19.86;52.06;101545.66;4982658;28;20042;-80
2022/05/02 12:16:02;;;;;;;35.03;18.13;;;;;;;20.04;49.54;101540.00;4996836;28;20038;-80